Time;durP1;ratioP1;P1;durP2;ratioP2;P2;SDS_P1;SDS_P2;PMS_P1;PMS_P2;Temp;Humidity;BMP_temperature;BMP_pressure;BME280_temperature;BME280_humidity;BME280_pressure;Samples;Min_cycle;Max_cycle;Signal;HPM_P1;HPM_P2
2022/11/25 00:01:59;;;;;;;6.72;2.95;;;4.10;99.90;;;;;;4352560;28;10000224;-69
2022/11/25 00:04:24;;;;;;;9.05;3.97;;;4.10;99.90;;;;;;5056712;28;20473;-69
2022/11/25 00:06:50;;;;;;;8.70;3.35;;;4.10;99.90;;;;;;5056742;28;20159;-69
2022/11/25 00:09:16;;;;;;;7.10;3.30;;;4.10;99.90;;;;;;5053681;28;20382;-69
2022/11/25 00:11:42;;;;;;;7.03;3.33;;;4.10;99.90;;;;;;5050352;28;20029;-69
2022/11/25 00:14:12;;;;;;;6.00;3.05;;;4.10;99.90;;;;;;5055748;28;20377;-70
2022/11/25 00:16:38;;;;;;;6.35;3.08;;;4.10;99.90;;;;;;5056969;28;20036;-69
2022/11/25 00:19:03;;;;;;;11.55;3.72;;;4.10;99.90;;;;;;5060572;28;20611;-70
2022/11/25 00:21:32;;;;;;;10.50;4.45;;;4.10;99.90;;;;;;5048570;28;20024;-69
2022/11/25 00:24:00;;;;;;;13.75;5.22;;;4.10;99.90;;;;;;5054368;28;20021;-69
2022/11/25 00:26:28;;;;;;;12.38;4.95;;;4.10;99.90;;;;;;5061130;28;20032;-70
2022/11/25 00:28:56;;;;;;;16.98;5.30;;;4.10;99.90;;;;;;5048517;28;20021;-69
2022/11/25 00:31:25;;;;;;;15.40;5.82;;;4.00;99.90;;;;;;5053127;28;20036;-69
2022/11/25 00:33:51;;;;;;;10.05;4.75;;;4.00;99.90;;;;;;5050978;28;20029;-70
2022/11/25 00:36:20;;;;;;;9.05;4.28;;;4.00;99.90;;;;;;5052380;28;20198;-70
2022/11/25 00:38:46;;;;;;;8.73;4.30;;;3.90;99.90;;;;;;5054765;28;20035;-70
2022/11/25 00:46:46;;;;;;;9.95;4.18;;;3.80;99.90;;;;;;5055137;28;20125;-70
2022/11/25 00:49:11;;;;;;;10.20;4.47;;;3.80;99.90;;;;;;5047312;28;20532;-70
2022/11/25 00:51:37;;;;;;;9.70;4.38;;;3.80;99.90;;;;;;5056287;28;20078;-70
2022/11/25 00:54:03;;;;;;;7.90;3.85;;;3.80;99.90;;;;;;5051464;28;20538;-69
2022/11/25 00:56:29;;;;;;;7.05;4.13;;;3.80;99.90;;;;;;5053961;28;20025;-70
2022/11/25 00:58:55;;;;;;;8.88;4.50;;;3.90;99.90;;;;;;5052011;28;20500;-70
2022/11/25 01:01:20;;;;;;;7.78;4.22;;;3.80;99.90;;;;;;5062262;28;20044;-70
2022/11/25 01:03:50;;;;;;;7.93;3.95;;;3.80;99.90;;;;;;5061984;28;20028;-70
2022/11/25 01:06:16;;;;;;;8.20;4.00;;;3.80;99.90;;;;;;5056655;28;20029;-69
2022/11/25 01:08:41;;;;;;;8.70;3.70;;;3.80;99.90;;;;;;5060408;28;20013;-70
2022/11/25 01:11:10;;;;;;;10.18;3.80;;;3.80;99.90;;;;;;5062540;28;20048;-70
2022/11/25 01:13:36;;;;;;;9.55;3.78;;;3.80;99.90;;;;;;5055314;28;20028;-70
2022/11/25 01:16:04;;;;;;;7.57;3.60;;;3.70;99.90;;;;;;5057472;28;20048;-70
2022/11/25 01:18:30;;;;;;;6.53;3.25;;;3.70;99.90;;;;;;5055730;28;20059;-69
2022/11/25 01:21:05;;;;;;;6.50;3.45;;;3.70;99.90;;;;;;5057797;28;20059;-69
2022/11/25 01:23:31;;;;;;;6.63;3.22;;;3.70;99.90;;;;;;5059210;28;20441;-69
2022/11/25 01:25:59;;;;;;;7.47;3.80;;;3.70;99.90;;;;;;5052886;28;20033;-69
2022/11/25 01:28:25;;;;;;;8.43;3.55;;;3.70;99.90;;;;;;5051814;28;20025;-70
2022/11/25 01:30:59;;;;;;;8.63;3.35;;;3.70;99.90;;;;;;5054535;28;20045;-70
2022/11/25 01:33:25;;;;;;;6.43;3.38;;;3.70;99.90;;;;;;5057285;28;20576;-70
2022/11/25 01:35:50;;;;;;;8.02;3.60;;;3.70;99.90;;;;;;5054895;28;20103;-70
2022/11/25 01:38:16;;;;;;;6.18;3.20;;;3.70;99.90;;;;;;5048848;28;20051;-69
2022/11/25 01:40:41;;;;;;;4.18;2.70;;;3.70;99.90;;;;;;5058496;28;20025;-69
2022/11/25 01:43:13;;;;;;;7.72;3.38;;;3.60;99.90;;;;;;5049961;28;20099;-70
2022/11/25 01:45:39;;;;;;;7.10;3.38;;;3.70;99.90;;;;;;5057353;28;20074;-70
2022/11/25 01:48:24;;;;;;;9.13;3.47;;;3.70;99.90;;;;;;5060957;28;20028;-69
2022/11/25 01:50:50;;;;;;;7.38;4.10;;;3.70;99.90;;;;;;5060627;28;20028;-70
2022/11/25 01:53:19;;;;;;;9.90;4.32;;;3.70;99.90;;;;;;5055665;28;20025;-70
2022/11/25 01:55:52;;;;;;;7.80;4.03;;;3.60;99.90;;;;;;5059571;28;20021;-69
2022/11/25 01:58:21;;;;;;;;;;;3.60;99.90;;;;;;5060411;28;20433;-70
2022/11/25 02:00:50;;;;;;;8.23;4.05;;;3.60;99.90;;;;;;5059113;28;20450;-70
2022/11/25 02:03:31;;;;;;;7.72;4.05;;;3.50;99.90;;;;;;5057128;28;20039;-70
2022/11/25 02:06:20;;;;;;;9.40;3.65;;;3.50;99.90;;;;;;5054113;28;20115;-70
2022/11/25 02:08:52;;;;;;;8.00;3.67;;;3.60;99.90;;;;;;5060299;28;20082;-70
2022/11/25 02:11:19;;;;;;;9.35;4.30;;;3.60;99.90;;;;;;5059058;28;20063;-70
2022/11/25 02:13:48;;;;;;;7.13;3.55;;;3.50;99.90;;;;;;5047555;28;20084;-70
2022/11/25 02:16:14;;;;;;;9.02;3.67;;;3.50;99.90;;;;;;5060046;28;20040;-70
2022/11/25 02:18:40;;;;;;;5.30;3.22;;;3.60;99.90;;;;;;5053189;28;20127;-70
2022/11/25 02:21:06;;;;;;;6.65;3.58;;;3.60;99.90;;;;;;5047872;28;20032;-70
2022/11/25 02:23:38;;;;;;;10.05;3.97;;;3.60;99.90;;;;;;5053307;28;20524;-70
2022/11/25 02:26:04;;;;;;;10.18;4.28;;;3.70;99.90;;;;;;5058282;28;20115;-69
2022/11/25 02:28:32;;;;;;;7.60;3.65;;;3.70;99.90;;;;;;5063506;28;20559;-70
2022/11/25 02:30:58;;;;;;;11.32;3.92;;;3.70;99.90;;;;;;5054966;28;20099;-69
2022/11/25 02:33:24;;;;;;;9.20;3.88;;;3.70;99.90;;;;;;5034814;28;20452;-69
2022/11/25 02:36:01;;;;;;;9.00;3.85;;;3.80;99.90;;;;;;5036659;28;20609;-69
2022/11/25 02:38:35;;;;;;;10.93;3.90;;;3.80;99.90;;;;;;5038681;28;20032;-69
2022/11/25 02:41:10;;;;;;;8.93;3.90;;;3.80;99.90;;;;;;5043581;28;20032;-70
2022/11/25 02:43:36;;;;;;;6.68;3.08;;;3.80;99.90;;;;;;5042156;28;20140;-70
2022/11/25 02:46:02;;;;;;;9.30;3.97;;;3.70;99.90;;;;;;5036731;28;20108;-70
2022/11/25 02:48:32;;;;;;;7.97;3.25;;;3.70;99.90;;;;;;5045867;28;20028;-70
2022/11/25 02:50:58;;;;;;;7.00;3.15;;;3.70;99.90;;;;;;5039294;28;20026;-70
2022/11/25 02:53:24;;;;;;;10.18;3.40;;;3.60;99.90;;;;;;5034599;28;20422;-70
2022/11/25 02:55:50;;;;;;;7.65;3.30;;;3.60;99.90;;;;;;5030675;28;20035;-69
2022/11/25 02:58:17;;;;;;;7.03;3.33;;;3.60;99.90;;;;;;5034730;28;20485;-69
2022/11/25 03:00:43;;;;;;;8.30;3.40;;;3.60;99.90;;;;;;5044014;28;20036;-70
2022/11/25 03:03:09;;;;;;;7.38;3.45;;;3.60;99.90;;;;;;5034112;28;20489;-70
2022/11/25 03:05:34;;;;;;;7.72;3.05;;;3.60;99.90;;;;;;5038020;28;20033;-70
2022/11/25 03:08:00;;;;;;;5.15;3.08;;;3.60;99.90;;;;;;5041816;28;20032;-70
2022/11/25 03:10:26;;;;;;;9.02;3.50;;;3.60;99.90;;;;;;5041694;28;20032;-70
2022/11/25 03:12:52;;;;;;;7.07;3.42;;;3.60;99.90;;;;;;5033283;28;20022;-69
2022/11/25 03:15:18;;;;;;;9.32;3.75;;;3.50;99.90;;;;;;5036134;28;20029;-70
2022/11/25 03:17:43;;;;;;;9.88;3.28;;;3.50;99.90;;;;;;5042835;28;20037;-69
2022/11/25 03:20:11;;;;;;;9.15;3.75;;;3.50;99.90;;;;;;5028656;28;20037;-70
2022/11/25 03:22:38;;;;;;;7.97;3.58;;;3.50;99.90;;;;;;5029186;28;20033;-70
2022/11/25 03:25:04;;;;;;;10.13;3.83;;;3.40;99.90;;;;;;5032120;28;20036;-69
2022/11/25 03:27:32;;;;;;;11.77;4.10;;;3.50;99.90;;;;;;5035935;28;20115;-70
2022/11/25 03:29:58;;;;;;;9.63;3.83;;;3.50;99.90;;;;;;5031726;28;20586;-70
2022/11/25 03:32:23;;;;;;;8.10;3.58;;;3.50;99.90;;;;;;5045308;28;20047;-70
2022/11/25 03:34:49;;;;;;;12.10;4.25;;;3.50;99.90;;;;;;5055717;28;20036;-70
2022/11/25 03:37:14;;;;;;;9.23;3.53;;;3.50;99.90;;;;;;5052220;28;20090;-69
2022/11/25 03:39:40;;;;;;;6.50;3.45;;;3.50;99.90;;;;;;5053065;28;20029;-70
2022/11/25 03:42:06;;;;;;;10.18;4.10;;;3.50;99.90;;;;;;5055535;28;20632;-70
2022/11/25 03:44:31;;;;;;;11.35;4.18;;;3.50;99.90;;;;;;5055187;28;20044;-70
2022/11/25 03:46:57;;;;;;;8.02;3.65;;;3.50;99.90;;;;;;5058845;28;20464;-69
2022/11/25 03:49:22;;;;;;;9.88;3.65;;;3.50;99.90;;;;;;5066473;28;20127;-69
2022/11/25 03:51:48;;;;;;;5.95;4.00;;;3.50;99.90;;;;;;5060122;28;20112;-69
2022/11/25 03:54:14;;;;;;;9.18;3.72;;;3.50;99.90;;;;;;5050116;28;20603;-69
2022/11/25 03:56:39;;;;;;;6.63;3.42;;;3.50;99.90;;;;;;5049855;28;20529;-69
2022/11/25 03:59:05;;;;;;;5.97;3.40;;;3.50;99.90;;;;;;5052311;28;20084;-69
2022/11/25 04:01:30;;;;;;;8.82;3.78;;;3.50;99.90;;;;;;5051256;28;20028;-69
2022/11/25 04:03:56;;;;;;;7.28;3.65;;;3.50;99.90;;;;;;5047689;28;20025;-70
2022/11/25 04:06:22;;;;;;;6.03;3.30;;;3.50;99.90;;;;;;5048435;28;20163;-70
2022/11/25 04:08:49;;;;;;;7.78;3.55;;;3.60;99.90;;;;;;5064941;28;20103;-69
2022/11/25 04:11:15;;;;;;;6.18;3.30;;;3.60;99.90;;;;;;5060001;28;20035;-70
2022/11/25 04:13:40;;;;;;;6.82;3.72;;;3.60;99.90;;;;;;5049311;28;20029;-69
2022/11/25 04:16:14;;;;;;;10.48;4.13;;;3.60;99.90;;;;;;5057159;28;20036;-70
2022/11/25 04:18:39;;;;;;;8.15;3.78;;;3.60;99.90;;;;;;5054224;28;20991;-69
2022/11/25 04:21:05;;;;;;;7.75;3.72;;;3.60;99.90;;;;;;5052461;28;20036;-70
2022/11/25 04:23:31;;;;;;;11.45;3.42;;;3.60;99.90;;;;;;5053983;28;20028;-69
2022/11/25 04:25:57;;;;;;;8.65;4.22;;;3.60;99.90;;;;;;5054236;28;20108;-70
2022/11/25 04:28:22;;;;;;;8.82;4.18;;;3.70;99.90;;;;;;5049249;28;20032;-69
2022/11/25 04:30:48;;;;;;;7.10;4.32;;;3.70;99.90;;;;;;5055073;28;20125;-69
2022/11/25 04:33:13;;;;;;;9.35;4.20;;;3.70;99.90;;;;;;5045156;28;20059;-69
2022/11/25 04:35:39;;;;;;;7.68;4.28;;;3.80;99.90;;;;;;5049502;28;20021;-70
2022/11/25 04:38:05;;;;;;;10.52;4.70;;;3.80;99.90;;;;;;5055731;28;22000;-69
2022/11/25 04:40:30;;;;;;;16.83;4.95;;;3.80;99.90;;;;;;5059285;28;20033;-70
2022/11/25 04:42:56;;;;;;;9.95;5.13;;;3.90;99.90;;;;;;5054518;28;20119;-70
2022/11/25 04:45:21;;;;;;;9.32;4.72;;;3.90;99.90;;;;;;5054154;28;20028;-70
2022/11/25 04:47:47;;;;;;;10.55;5.00;;;4.00;99.90;;;;;;5056825;28;20021;-70
2022/11/25 04:50:17;;;;;;;8.77;4.20;;;4.00;99.90;;;;;;5059918;28;20126;-70
2022/11/25 04:52:43;;;;;;;12.40;4.78;;;4.00;99.90;;;;;;5050038;28;20462;-70
2022/11/25 04:55:09;;;;;;;9.73;4.20;;;4.00;99.90;;;;;;5054672;28;20028;-70
2022/11/25 04:57:35;;;;;;;11.25;4.90;;;4.00;99.90;;;;;;5046454;28;20090;-70
2022/11/25 05:00:00;;;;;;;11.07;4.70;;;4.10;99.90;;;;;;5053380;28;20033;-70
2022/11/25 05:02:27;;;;;;;9.48;5.00;;;4.10;99.90;;;;;;5041050;28;20032;-69
2022/11/25 05:04:55;;;;;;;8.38;4.53;;;4.10;99.90;;;;;;5048586;28;20028;-69
2022/11/25 05:07:22;;;;;;;8.98;4.45;;;4.10;99.90;;;;;;5061931;28;20485;-70
2022/11/25 05:09:48;;;;;;;10.02;4.45;;;4.10;99.90;;;;;;5049326;28;20024;-69
2022/11/25 05:12:26;;;;;;;7.13;4.15;;;4.00;99.90;;;;;;5056588;28;20384;-70
2022/11/25 05:14:52;;;;;;;9.90;4.80;;;4.00;99.90;;;;;;5052507;28;20032;-70
2022/11/25 05:17:24;;;;;;;8.82;4.28;;;3.90;99.90;;;;;;5057058;28;20484;-70
2022/11/25 05:19:50;;;;;;;8.90;4.43;;;3.90;99.90;;;;;;5056538;28;20028;-70
2022/11/25 05:22:18;;;;;;;10.23;4.32;;;3.90;99.90;;;;;;5053641;28;20036;-70
2022/11/25 05:24:44;;;;;;;8.70;4.78;;;4.00;99.90;;;;;;5058165;28;20036;-70
2022/11/25 05:27:10;;;;;;;10.13;4.57;;;4.00;99.90;;;;;;5054181;28;20036;-70
2022/11/25 05:29:36;;;;;;;10.00;5.40;;;4.00;99.90;;;;;;5051397;28;20017;-69
2022/11/25 05:32:02;;;;;;;8.55;5.25;;;4.00;99.90;;;;;;5047862;28;20721;-70
2022/11/25 05:34:28;;;;;;;9.85;5.60;;;4.00;99.90;;;;;;5058713;28;20024;-70
2022/11/25 05:36:53;;;;;;;15.63;6.75;;;4.00;99.90;;;;;;5048924;28;20051;-70
2022/11/25 05:39:19;;;;;;;10.13;5.45;;;4.00;99.90;;;;;;5054695;28;20082;-70
2022/11/25 05:41:45;;;;;;;10.45;5.75;;;4.10;99.90;;;;;;5058596;28;20036;-70
2022/11/25 05:44:11;;;;;;;11.25;6.10;;;4.10;99.90;;;;;;5047700;28;20136;-70
2022/11/25 05:46:36;;;;;;;11.50;5.80;;;4.20;99.90;;;;;;5052877;28;20020;-70
2022/11/25 05:49:02;;;;;;;11.40;6.20;;;4.20;99.90;;;;;;5055696;28;20049;-70
2022/11/25 05:51:29;;;;;;;10.73;5.78;;;4.20;99.90;;;;;;5055245;28;20131;-70
2022/11/25 05:53:55;;;;;;;11.30;5.70;;;4.20;99.90;;;;;;5055573;28;20473;-70
2022/11/25 05:56:21;;;;;;;10.70;5.65;;;4.20;99.90;;;;;;5048132;28;20040;-70
2022/11/25 05:58:46;;;;;;;8.05;5.07;;;4.20;99.90;;;;;;5043271;28;20542;-70
2022/11/25 06:01:14;;;;;;;9.45;5.47;;;4.20;99.90;;;;;;5056928;28;20447;-70
2022/11/25 06:03:39;;;;;;;8.48;4.65;;;4.20;99.90;;;;;;5043345;28;20025;-71
2022/11/25 06:06:06;;;;;;;11.63;6.13;;;4.20;99.90;;;;;;5058588;28;20039;-70
2022/11/25 06:08:32;;;;;;;11.38;6.38;;;4.20;99.90;;;;;;5051181;28;20078;-70
2022/11/25 06:10:58;;;;;;;14.40;6.32;;;4.20;99.90;;;;;;5049334;28;20044;-71
2022/11/25 06:13:24;;;;;;;11.60;6.32;;;4.20;99.90;;;;;;5051595;28;20766;-70
2022/11/25 06:15:50;;;;;;;14.10;6.50;;;4.20;99.90;;;;;;5056797;28;20041;-70
2022/11/25 06:18:17;;;;;;;15.18;8.15;;;4.30;99.90;;;;;;5044799;28;20204;-70
2022/11/25 06:20:43;;;;;;;13.70;8.20;;;4.30;99.90;;;;;;5056046;28;20400;-70
2022/11/25 06:23:09;;;;;;;20.27;9.50;;;4.30;99.90;;;;;;5051147;28;20024;-70
2022/11/25 06:25:35;;;;;;;20.92;10.02;;;4.40;99.90;;;;;;5052543;28;20060;-70
2022/11/25 06:28:02;;;;;;;21.45;8.75;;;4.40;99.90;;;;;;5062482;28;20060;-71
2022/11/25 06:30:28;;;;;;;17.63;10.00;;;4.40;99.90;;;;;;5052416;28;20870;-70
2022/11/25 06:32:54;;;;;;;15.85;10.02;;;4.40;99.90;;;;;;5062158;28;20040;-70
2022/11/25 06:35:20;;;;;;;19.17;8.80;;;4.40;99.90;;;;;;5046756;28;20050;-70
2022/11/25 06:37:46;;;;;;;15.88;7.55;;;4.40;99.90;;;;;;5048701;28;20060;-69
2022/11/25 06:40:12;;;;;;;14.07;6.40;;;4.40;99.90;;;;;;5055189;28;20061;-70
2022/11/25 06:42:38;;;;;;;12.27;5.95;;;4.50;99.90;;;;;;5053943;28;20040;-70
2022/11/25 06:45:04;;;;;;;16.05;6.50;;;4.50;99.90;;;;;;5062059;28;20131;-69
2022/11/25 06:47:30;;;;;;;19.65;7.90;;;4.50;99.90;;;;;;5054946;28;20033;-70
2022/11/25 06:49:56;;;;;;;14.68;6.47;;;4.50;99.90;;;;;;5054203;28;20029;-70
2022/11/25 06:52:22;;;;;;;14.32;5.75;;;;;;;;;;5051394;28;20043;-70
2022/11/25 06:54:48;;;;;;;14.65;6.53;;;4.60;99.90;;;;;;5061928;28;20082;-70
2022/11/25 06:57:17;;;;;;;12.80;5.72;;;4.60;99.90;;;;;;5054575;28;20056;-70
2022/11/25 06:59:43;;;;;;;18.83;6.63;;;4.60;99.90;;;;;;5063343;28;20120;-69
2022/11/25 07:02:10;;;;;;;15.27;6.88;;;4.50;99.90;;;;;;5055279;28;20131;-70
2022/11/25 07:04:36;;;;;;;13.93;6.03;;;4.50;99.90;;;;;;5051998;28;20031;-70
2022/11/25 07:07:02;;;;;;;14.93;6.50;;;4.50;99.90;;;;;;5054260;28;20261;-70
2022/11/25 07:09:28;;;;;;;15.70;6.63;;;4.50;99.90;;;;;;5061551;28;20021;-70
2022/11/25 07:11:54;;;;;;;10.88;5.95;;;4.50;99.90;;;;;;5058059;28;20036;-70
2022/11/25 07:14:19;;;;;;;11.07;6.00;;;4.50;99.90;;;;;;5056145;28;20028;-70
2022/11/25 07:16:45;;;;;;;12.52;6.72;;;4.50;99.90;;;;;;5043406;28;21041;-70
2022/11/25 07:19:14;;;;;;;12.27;6.63;;;4.40;99.90;;;;;;5056160;28;20727;-70
2022/11/25 07:21:40;;;;;;;13.82;7.40;;;4.40;99.90;;;;;;5054968;28;20540;-70
2022/11/25 07:24:07;;;;;;;14.93;7.00;;;4.40;99.90;;;;;;5052385;28;20041;-70
2022/11/25 07:26:37;;;;;;;16.80;6.72;;;4.50;99.90;;;;;;5054490;28;20037;-71
2022/11/25 07:29:06;;;;;;;12.57;4.50;;;4.50;99.90;;;;;;5056116;28;20424;-70
2022/11/25 07:31:38;;;;;;;12.23;4.75;;;4.60;99.90;;;;;;5053438;28;20037;-70
2022/11/25 07:34:16;;;;;;;9.45;4.30;;;4.70;99.90;;;;;;5052249;28;20047;-70
2022/11/25 07:36:42;;;;;;;13.27;4.30;;;4.70;99.90;;;;;;5048169;28;20043;-70
2022/11/25 07:39:14;;;;;;;14.70;4.85;;;4.70;99.90;;;;;;5048784;28;20032;-70
2022/11/25 07:41:40;;;;;;;9.93;4.25;;;4.80;99.90;;;;;;5036955;28;20032;-70
2022/11/25 07:44:07;;;;;;;10.93;4.00;;;4.80;99.90;;;;;;5052513;28;20618;-70
2022/11/25 07:46:39;;;;;;;9.93;5.22;;;4.80;99.90;;;;;;5058331;28;20474;-70
2022/11/25 07:49:07;;;;;;;12.95;6.22;;;4.80;99.90;;;;;;5058714;28;20047;-70
2022/11/25 07:51:47;;;;;;;14.10;7.28;;;4.80;99.90;;;;;;5060521;28;20051;-70
2022/11/25 07:54:13;;;;;;;16.63;7.18;;;4.90;99.90;;;;;;5048801;28;20389;-70
2022/11/25 07:56:41;;;;;;;12.57;7.20;;;4.90;99.90;;;;;;5046897;28;20032;-70
2022/11/25 07:59:11;;;;;;;16.48;7.47;;;4.90;99.90;;;;;;5049662;28;20515;-70
2022/11/25 08:01:37;;;;;;;12.93;7.05;;;4.90;99.90;;;;;;5044733;28;20115;-69
2022/11/25 08:04:03;;;;;;;15.68;6.57;;;4.90;99.90;;;;;;5051229;28;20115;-70
2022/11/25 08:06:29;;;;;;;15.68;6.72;;;5.00;99.90;;;;;;5047951;28;20032;-70
2022/11/25 08:08:56;;;;;;;14.75;7.45;;;5.00;99.90;;;;;;5052124;28;20043;-70
2022/11/25 08:11:25;;;;;;;16.52;7.60;;;5.00;99.90;;;;;;5058373;28;20504;-70
2022/11/25 08:13:50;;;;;;;16.52;8.90;;;5.00;99.90;;;;;;5054335;28;20027;-71
2022/11/25 08:16:18;;;;;;;20.90;10.05;;;5.10;99.90;;;;;;5056990;28;20451;-71
2022/11/25 08:18:45;;;;;;;36.40;14.23;;;5.10;99.90;;;;;;5052343;28;20573;-71
2022/11/25 08:21:13;;;;;;;38.22;15.68;;;5.10;99.90;;;;;;5058317;28;20036;-70
2022/11/25 08:23:40;;;;;;;33.58;14.65;;;5.20;99.90;;;;;;5058602;28;21433;-71
2022/11/25 08:26:08;;;;;;;42.78;19.20;;;5.20;99.90;;;;;;5056332;28;20033;-70
2022/11/25 08:28:35;;;;;;;41.60;19.48;;;5.20;99.90;;;;;;5046808;28;20024;-70
2022/11/25 08:31:05;;;;;;;39.97;17.85;;;5.20;99.90;;;;;;5046065;28;20176;-70
2022/11/25 08:33:32;;;;;;;36.58;16.95;;;5.30;99.90;;;;;;5045369;28;20100;-71
2022/11/25 08:35:57;;;;;;;34.58;15.80;;;5.30;99.90;;;;;;5047994;28;20508;-71
2022/11/25 08:38:23;;;;;;;29.38;12.75;;;5.30;99.90;;;;;;5060923;28;20130;-71
2022/11/25 08:40:49;;;;;;;21.13;8.57;;;5.40;99.90;;;;;;5047741;28;20549;-71
2022/11/25 08:43:16;;;;;;;14.93;7.40;;;5.40;99.90;;;;;;5047123;28;20029;-70
2022/11/25 08:45:42;;;;;;;16.80;8.20;;;5.50;99.90;;;;;;5045488;28;20079;-70
2022/11/25 08:48:07;;;;;;;16.77;7.13;;;5.50;99.90;;;;;;5059127;28;20392;-70
2022/11/25 08:50:33;;;;;;;10.88;5.72;;;5.50;99.90;;;;;;5060083;28;20777;-70
2022/11/25 08:53:00;;;;;;;17.58;5.50;;;5.50;99.90;;;;;;5054451;28;20039;-70
2022/11/25 08:55:27;;;;;;;14.63;5.35;;;5.50;99.90;;;;;;5060048;28;20517;-71
2022/11/25 08:57:53;;;;;;;14.73;4.82;;;5.60;99.90;;;;;;5060482;28;20390;-70
2022/11/25 09:00:20;;;;;;;10.90;4.20;;;5.60;99.90;;;;;;5059726;28;20031;-70
2022/11/25 09:02:46;;;;;;;11.52;3.85;;;5.60;99.90;;;;;;5056396;28;20116;-70
2022/11/25 09:05:14;;;;;;;8.30;4.03;;;5.60;99.90;;;;;;5047582;28;20147;-70
2022/11/25 09:07:40;;;;;;;15.90;5.63;;;5.70;99.90;;;;;;5067004;28;20491;-70
2022/11/25 09:10:09;;;;;;;16.33;6.18;;;5.70;99.90;;;;;;5053010;28;20025;-70
2022/11/25 09:12:35;;;;;;;17.17;6.88;;;5.70;99.90;;;;;;5057103;28;22641;-70
2022/11/25 09:15:01;;;;;;;17.67;6.70;;;5.70;99.90;;;;;;5061752;28;20029;-70
2022/11/25 09:17:27;;;;;;;11.75;5.80;;;5.70;99.90;;;;;;5042380;28;20251;-70
2022/11/25 09:19:53;;;;;;;10.15;5.43;;;5.70;99.90;;;;;;5057144;28;20433;-70
2022/11/25 09:22:19;;;;;;;27.10;10.13;;;;;;;;;;5055290;28;20028;-70
2022/11/25 09:24:45;;;;;;;19.08;7.75;;;;;;;;;;5054818;28;20060;-70
2022/11/25 09:27:11;;;;;;;14.35;5.72;;;;;;;;;;5052783;28;20024;-70
2022/11/25 09:29:37;;;;;;;14.68;4.90;;;;;;;;;;5049755;28;20025;-69
2022/11/25 09:32:04;;;;;;;12.27;4.15;;;;;;;;;;5044786;28;20408;-70
2022/11/25 09:34:30;;;;;;;18.42;5.05;;;;;;;;;;5062040;28;20041;-70
2022/11/25 09:36:56;;;;;;;10.18;4.22;;;;;;;;;;5062943;28;20097;-70
2022/11/25 09:39:26;;;;;;;11.18;3.97;;;6.30;99.90;;;;;;5060233;28;20479;-70
2022/11/25 09:47:49;;;;;;;12.85;3.78;;;;;;;;;;5057215;28;20115;-70
2022/11/25 09:50:43;;;;;;;16.17;6.75;;;6.10;99.90;;;;;;5050527;28;20029;-70
2022/11/25 09:53:34;;;;;;;13.10;6.10;;;6.20;99.90;;;;;;5042860;28;20032;-70
2022/11/25 09:56:03;;;;;;;12.38;6.28;;;6.20;99.90;;;;;;5046355;28;20029;-70
2022/11/25 09:58:36;;;;;;;17.45;6.10;;;6.20;99.90;;;;;;5052773;28;20131;-70
2022/11/25 10:01:11;;;;;;;13.60;6.25;;;6.20;99.90;;;;;;5046823;28;20044;-69
2022/11/25 10:03:57;;;;;;;19.63;6.93;;;6.30;99.90;;;;;;5046870;28;20431;-69
2022/11/25 10:06:25;;;;;;;23.52;9.00;;;6.40;99.90;;;;;;5042325;28;20029;-69
2022/11/25 10:08:53;;;;;;;18.13;11.15;;;6.40;99.90;;;;;;5048637;28;20306;-70
2022/11/25 10:11:22;;;;;;;16.88;7.75;;;;;;;;;;5053534;28;20057;-69
2022/11/25 10:13:57;;;;;;;14.05;5.85;;;;;;;;;;5053336;28;20024;-70
2022/11/25 10:16:36;;;;;;;16.83;5.88;;;;;;;;;;5043451;28;20063;-70
2022/11/25 10:19:22;;;;;;;17.33;5.68;;;8.20;99.90;;;;;;5053878;28;20028;-70
2022/11/25 10:21:48;;;;;;;15.90;5.20;;;6.40;99.90;;;;;;5050761;28;20520;-70
2022/11/25 10:24:16;;;;;;;16.85;4.97;;;6.40;99.90;;;;;;5049575;28;20049;-70
2022/11/25 10:26:47;;;;;;;17.17;5.57;;;6.30;99.90;;;;;;5047030;28;20425;-70
2022/11/25 10:29:12;;;;;;;15.77;5.53;;;6.40;99.90;;;;;;5059979;28;20052;-70
2022/11/25 10:31:40;;;;;;;12.82;5.20;;;6.40;99.90;;;;;;5061140;28;20092;-70
2022/11/25 10:34:27;;;;;;;16.88;5.47;;;6.50;99.90;;;;;;5045371;28;20423;-69
2022/11/25 10:36:54;;;;;;;12.05;5.40;;;6.50;99.90;;;;;;5045710;28;20025;-70
2022/11/25 10:39:26;;;;;;;13.85;6.20;;;6.50;99.90;;;;;;5062181;28;20059;-70
2022/11/25 10:42:07;;;;;;;16.60;5.93;;;6.50;99.90;;;;;;5047964;28;20033;-70
2022/11/25 10:44:34;;;;;;;21.25;8.57;;;6.50;99.90;;;;;;5055422;28;20204;-70
2022/11/25 10:47:25;;;;;;;19.13;7.80;;;6.50;99.90;;;;;;5057403;28;20023;-70
2022/11/25 10:50:03;;;;;;;19.50;9.27;;;6.50;99.90;;;;;;5056522;28;20025;-70
2022/11/25 10:52:30;;;;;;;23.95;9.65;;;;;;;;;;5053444;28;20029;-70
2022/11/25 10:54:57;;;;;;;22.42;10.07;;;;;;;;;;5063336;28;20017;-70
2022/11/25 10:57:28;;;;;;;21.38;8.32;;;6.60;99.90;;;;;;5058003;28;20056;-70
2022/11/25 10:59:58;;;;;;;21.52;10.60;;;6.60;99.90;;;;;;5053183;28;20108;-70
2022/11/25 11:02:28;;;;;;;21.33;7.32;;;6.60;99.90;;;;;;5048034;28;20039;-70
2022/11/25 11:05:09;;;;;;;17.13;7.13;;;6.60;99.90;;;;;;5047655;28;20033;-70
2022/11/25 11:07:42;;;;;;;25.73;9.75;;;;;;;;;;5056053;28;20467;-70
2022/11/25 11:10:13;;;;;;;23.77;11.02;;;6.60;99.90;;;;;;5057647;28;20703;-70
2022/11/25 11:12:53;;;;;;;26.95;8.52;;;6.70;99.90;;;;;;5055839;28;20514;-69
2022/11/25 11:15:26;;;;;;;22.73;7.50;;;6.70;99.90;;;;;;5049966;28;20029;-69
2022/11/25 11:17:53;;;;;;;13.30;6.43;;;6.70;99.90;;;;;;5049856;28;20059;-70
2022/11/25 11:20:30;;;;;;;17.08;6.05;;;6.80;99.90;;;;;;5055681;28;20065;-71
2022/11/25 11:23:09;;;;;;;17.13;6.20;;;6.80;99.90;;;;;;5060945;28;20039;-71
2022/11/25 11:25:39;;;;;;;18.38;6.50;;;6.80;99.90;;;;;;5056944;28;20032;-70
2022/11/25 11:28:27;;;;;;;17.83;6.65;;;6.80;99.90;;;;;;5058771;28;20037;-70
2022/11/25 11:31:07;;;;;;;21.35;7.32;;;6.80;99.90;;;;;;5058343;28;20557;-71
2022/11/25 11:33:39;;;;;;;19.30;6.75;;;6.80;99.90;;;;;;5059113;28;20040;-70
2022/11/25 11:36:08;;;;;;;19.55;6.72;;;6.90;99.90;;;;;;5059058;28;20479;-69
2022/11/25 11:38:43;;;;;;;24.95;7.57;;;6.90;99.90;;;;;;5049919;28;20024;-69
2022/11/25 11:41:25;;;;;;;21.02;7.22;;;6.90;99.90;;;;;;5057781;28;20245;-69
2022/11/25 11:44:03;;;;;;;18.48;6.82;;;6.90;99.90;;;;;;5050994;28;20044;-69
2022/11/25 11:46:48;;;;;;;14.48;6.85;;;6.90;99.90;;;;;;5062013;28;20055;-70
2022/11/25 11:49:31;;;;;;;20.75;7.53;;;6.90;99.90;;;;;;5056354;28;20059;-69
2022/11/25 11:52:03;;;;;;;;;;;7.00;99.90;;;;;;5063882;28;20111;-69
2022/11/25 11:54:42;;;;;;;18.25;6.65;;;7.00;99.90;;;;;;5064431;28;19908;-70
2022/11/25 11:57:26;;;;;;;22.30;8.65;;;;;;;;;;5059848;28;20033;-69
2022/11/25 11:59:54;;;;;;;21.40;9.95;;;;;;;;;;5056253;28;20058;-69
2022/11/25 12:02:26;;;;;;;20.85;8.30;;;;;;;;;;5057882;28;20021;-69
2022/11/25 12:04:58;;;;;;;20.58;7.93;;;;;;;;;;5059320;28;20033;-69
2022/11/25 12:07:27;;;;;;;22.05;8.30;;;7.30;99.90;;;;;;5054384;28;20028;-69
2022/11/25 12:10:15;;;;;;;19.52;8.25;;;7.30;99.90;;;;;;5054339;28;20025;-68
2022/11/25 12:13:03;;;;;;;18.05;8.48;;;7.40;99.90;;;;;;5050556;28;20067;-68
2022/11/25 12:15:56;;;;;;;18.17;8.13;;;7.50;99.90;;;;;;4314501;28;10001210;-70
2022/11/25 12:18:49;;;;;;;19.35;9.32;;;7.50;99.90;;;;;;5008473;28;20029;-70
2022/11/25 12:21:48;;;;;;;18.13;7.93;;;7.50;99.90;;;;;;5010541;28;20037;-70
2022/11/25 12:24:51;;;;;;;16.92;9.00;;;7.60;99.90;;;;;;5009005;28;20537;-70
2022/11/25 12:27:24;;;;;;;13.27;7.47;;;7.70;99.90;;;;;;5002656;28;20033;-70
2022/11/25 12:29:59;;;;;;;24.40;11.25;;;7.80;99.90;;;;;;5009747;28;20038;-70
2022/11/25 12:32:37;;;;;;;21.80;10.02;;;;;;;;;;5013141;28;20627;-70
2022/11/25 12:35:12;;;;;;;23.50;10.45;;;;;;;;;;5012523;28;20060;-70
2022/11/25 12:37:58;;;;;;;22.25;11.88;;;;;;;;;;5027127;28;20029;-70
2022/11/25 12:40:43;;;;;;;23.17;11.35;;;8.50;99.90;;;;;;5022780;28;20055;-70
2022/11/25 12:43:32;;;;;;;23.10;11.40;;;8.40;99.90;;;;;;5008589;28;20060;-70
2022/11/25 12:46:21;;;;;;;22.20;12.77;;;8.40;99.90;;;;;;5020172;28;20037;-70
2022/11/25 12:48:47;;;;;;;20.90;10.23;;;;;;;;;;5039935;28;20040;-70
2022/11/25 12:51:34;;;;;;;17.65;9.95;;;8.20;99.90;;;;;;5048009;28;20118;-70
2022/11/25 12:54:18;;;;;;;21.20;11.20;;;8.20;99.90;;;;;;5055043;28;20118;-70
2022/11/25 12:57:11;;;;;;;22.20;10.90;;;8.20;99.90;;;;;;5051197;28;20040;-69
2022/11/25 12:59:43;;;;;;;17.77;9.05;;;;;;;;;;5050671;28;20055;-69
2022/11/25 13:02:28;;;;;;;20.17;9.60;;;;;;;;;;5044173;28;20080;-72
2022/11/25 13:05:00;;;;;;;15.18;9.32;;;;;;;;;;5056639;28;20041;-71
2022/11/25 13:07:31;;;;;;;19.60;9.23;;;;;;;;;;5045659;28;20368;-71
2022/11/25 13:10:12;;;;;;;21.67;9.07;;;8.20;99.90;;;;;;5055148;28;20035;-71
2022/11/25 13:12:59;;;;;;;16.48;9.07;;;8.30;99.90;;;;;;5055517;28;20029;-71
2022/11/25 13:15:26;;;;;;;21.15;10.43;;;8.40;99.90;;;;;;5052446;28;20086;-71
2022/11/25 13:18:00;;;;;;;19.67;10.43;;;8.40;99.90;;;;;;5059398;28;20143;-70
2022/11/25 13:20:26;;;;;;;18.90;8.68;;;8.50;99.90;;;;;;5055652;28;20028;-72
2022/11/25 13:23:03;;;;;;;20.83;10.43;;;8.50;99.90;;;;;;5051720;28;20475;-72